sensor_id;sensor_type;location;lat;lon;timestamp;pressure;altitude;pressure_sealevel;temperature;humidity
46718;BME280;32448;44.960;-0.698;2023-02-11T00:01:34;103414.75;;;-1.65;100.00
46718;BME280;32448;44.960;-0.698;2023-02-11T00:04:03;103410.81;;;-1.70;100.00
46718;BME280;32448;44.960;-0.698;2023-02-11T00:06:33;103408.97;;;-1.71;100.00
46718;BME280;32448;44.960;-0.698;2023-02-11T00:09:03;103410.06;;;-1.69;100.00
46718;BME280;32448;44.960;-0.698;2023-02-11T00:11:30;103402.59;;;-1.75;100.00
46718;BME280;32448;44.960;-0.698;2023-02-11T00:14:00;103397.75;;;-1.80;100.00
46718;BME280;32448;44.960;-0.698;2023-02-11T00:16:28;103409.25;;;-1.77;100.00
46718;BME280;32448;44.960;-0.698;2023-02-11T00:19:01;103408.91;;;-1.80;100.00
46718;BME280;32448;44.960;-0.698;2023-02-11T00:21:33;103394.66;;;-1.85;100.00
46718;BME280;32448;44.960;-0.698;2023-02-11T00:24:00;103405.19;;;-1.91;100.00
46718;BME280;32448;44.960;-0.698;2023-02-11T00:26:32;103387.91;;;-2.00;100.00
46718;BME280;32448;44.960;-0.698;2023-02-11T00:29:03;103398.28;;;-1.99;100.00
46718;BME280;32448;44.960;-0.698;2023-02-11T00:31:32;103401.19;;;-1.96;100.00
46718;BME280;32448;44.960;-0.698;2023-02-11T00:34:04;103395.88;;;-1.97;100.00
46718;BME280;32448;44.960;-0.698;2023-02-11T00:36:32;103387.22;;;-2.06;100.00
46718;BME280;32448;44.960;-0.698;2023-02-11T00:38:59;103402.09;;;-1.95;100.00
46718;BME280;32448;44.960;-0.698;2023-02-11T00:41:27;103395.41;;;-2.02;100.00
46718;BME280;32448;44.960;-0.698;2023-02-11T00:43:56;103395.06;;;-2.05;100.00
46718;BME280;32448;44.960;-0.698;2023-02-11T00:46:29;103397.06;;;-2.02;100.00
46718;BME280;32448;44.960;-0.698;2023-02-11T00:48:57;103403.09;;;-2.02;100.00
46718;BME280;32448;44.960;-0.698;2023-02-11T00:51:26;103388.59;;;-2.17;100.00
46718;BME280;32448;44.960;-0.698;2023-02-11T00:53:54;103396.81;;;-2.12;100.00
46718;BME280;32448;44.960;-0.698;2023-02-11T00:56:25;103382.16;;;-2.13;100.00
46718;BME280;32448;44.960;-0.698;2023-02-11T00:58:54;103381.47;;;-2.20;100.00
46718;BME280;32448;44.960;-0.698;2023-02-11T01:01:25;103397.03;;;-2.18;100.00
46718;BME280;32448;44.960;-0.698;2023-02-11T01:03:53;103377.34;;;-2.26;100.00
46718;BME280;32448;44.960;-0.698;2023-02-11T01:06:22;103382.31;;;-2.28;100.00
46718;BME280;32448;44.960;-0.698;2023-02-11T01:08:50;103376.09;;;-2.30;100.00
46718;BME280;32448;44.960;-0.698;2023-02-11T01:11:20;103371.72;;;-2.31;100.00
46718;BME280;32448;44.960;-0.698;2023-02-11T01:13:48;103370.22;;;-2.29;100.00
46718;BME280;32448;44.960;-0.698;2023-02-11T01:16:18;103362.56;;;-2.29;100.00
46718;BME280;32448;44.960;-0.698;2023-02-11T01:18:46;103367.09;;;-2.26;100.00
46718;BME280;32448;44.960;-0.698;2023-02-11T01:21:16;103348.91;;;-2.36;100.00
46718;BME280;32448;44.960;-0.698;2023-02-11T01:23:44;103361.25;;;-2.25;100.00
46718;BME280;32448;44.960;-0.698;2023-02-11T01:26:11;103316.50;;;-2.51;100.00
46718;BME280;32448;44.960;-0.698;2023-02-11T01:28:48;103351.66;;;-2.35;100.00
46718;BME280;32448;44.960;-0.698;2023-02-11T01:31:15;103331.22;;;-2.42;100.00
46718;BME280;32448;44.960;-0.698;2023-02-11T01:33:47;103355.44;;;-2.31;100.00
46718;BME280;32448;44.960;-0.698;2023-02-11T01:36:15;103348.56;;;-2.39;100.00
46718;BME280;32448;44.960;-0.698;2023-02-11T01:38:42;103347.50;;;-2.41;100.00
46718;BME280;32448;44.960;-0.698;2023-02-11T01:41:12;103348.00;;;-2.37;100.00
46718;BME280;32448;44.960;-0.698;2023-02-11T01:43:44;103336.50;;;-2.40;100.00
46718;BME280;32448;44.960;-0.698;2023-02-11T01:46:32;103316.75;;;-2.57;100.00
46718;BME280;32448;44.960;-0.698;2023-02-11T01:49:11;103340.88;;;-2.55;100.00
46718;BME280;32448;44.960;-0.698;2023-02-11T01:51:49;103346.56;;;-2.58;100.00
46718;BME280;32448;44.960;-0.698;2023-02-11T01:54:21;103342.38;;;-2.64;100.00
46718;BME280;32448;44.960;-0.698;2023-02-11T01:57:10;103338.59;;;-2.68;100.00
46718;BME280;32448;44.960;-0.698;2023-02-11T02:02:54;103349.69;;;-2.60;100.00
46718;BME280;32448;44.960;-0.698;2023-02-11T02:05:51;103317.84;;;-2.78;100.00
46718;BME280;32448;44.960;-0.698;2023-02-11T02:08:34;103343.38;;;-2.71;100.00
46718;BME280;32448;44.960;-0.698;2023-02-11T02:11:05;103334.25;;;-2.76;100.00
46718;BME280;32448;44.960;-0.698;2023-02-11T02:13:35;103326.28;;;-2.79;100.00
46718;BME280;32448;44.960;-0.698;2023-02-11T02:16:09;103275.09;;;-3.02;100.00
46718;BME280;32448;44.960;-0.698;2023-02-11T02:35:13;103276.56;;;-3.04;100.00
46718;BME280;32448;44.960;-0.698;2023-02-11T02:37:58;103308.19;;;-2.80;100.00
46718;BME280;32448;44.960;-0.698;2023-02-11T02:40:48;103303.13;;;-2.87;100.00
46718;BME280;32448;44.960;-0.698;2023-02-11T02:43:17;103295.28;;;-2.89;100.00
46718;BME280;32448;44.960;-0.698;2023-02-11T02:45:45;103287.78;;;-2.87;100.00
46718;BME280;32448;44.960;-0.698;2023-02-11T02:48:26;103284.16;;;-2.89;100.00
46718;BME280;32448;44.960;-0.698;2023-02-11T03:04:13;103279.41;;;-2.94;100.00
46718;BME280;32448;44.960;-0.698;2023-02-11T03:07:12;103262.88;;;-3.04;100.00
46718;BME280;32448;44.960;-0.698;2023-02-11T03:10:07;103275.59;;;-2.97;100.00
46718;BME280;32448;44.960;-0.698;2023-02-11T03:12:36;103260.16;;;-3.06;100.00
46718;BME280;32448;44.960;-0.698;2023-02-11T03:15:05;103261.75;;;-2.99;100.00
46718;BME280;32448;44.960;-0.698;2023-02-11T03:17:34;103233.03;;;-3.19;100.00
46718;BME280;32448;44.960;-0.698;2023-02-11T03:20:04;103256.28;;;-3.02;100.00
46718;BME280;32448;44.960;-0.698;2023-02-11T03:22:37;103259.97;;;-3.07;100.00
46718;BME280;32448;44.960;-0.698;2023-02-11T03:25:07;103250.16;;;-3.11;100.00
46718;BME280;32448;44.960;-0.698;2023-02-11T03:27:51;103255.44;;;-3.10;100.00
46718;BME280;32448;44.960;-0.698;2023-02-11T03:30:31;103231.84;;;-3.30;100.00
46718;BME280;32448;44.960;-0.698;2023-02-11T03:36:02;103249.53;;;-3.24;100.00
46718;BME280;32448;44.960;-0.698;2023-02-11T03:38:35;103256.47;;;-3.23;100.00
46718;BME280;32448;44.960;-0.698;2023-02-11T03:41:05;103254.81;;;-3.23;100.00
46718;BME280;32448;44.960;-0.698;2023-02-11T03:43:43;103253.72;;;-3.25;100.00
46718;BME280;32448;44.960;-0.698;2023-02-11T03:46:15;103256.50;;;-3.31;100.00
46718;BME280;32448;44.960;-0.698;2023-02-11T03:48:48;103240.13;;;-3.40;100.00
46718;BME280;32448;44.960;-0.698;2023-02-11T03:51:19;103246.16;;;-3.39;100.00
46718;BME280;32448;44.960;-0.698;2023-02-11T03:53:48;103237.03;;;-3.37;100.00
46718;BME280;32448;44.960;-0.698;2023-02-11T03:56:20;103244.13;;;-3.35;100.00
46718;BME280;32448;44.960;-0.698;2023-02-11T03:58:50;103235.75;;;-3.41;100.00
46718;BME280;32448;44.960;-0.698;2023-02-11T04:01:17;103233.78;;;-3.43;100.00
46718;BME280;32448;44.960;-0.698;2023-02-11T04:03:45;103240.03;;;-3.48;100.00
46718;BME280;32448;44.960;-0.698;2023-02-11T04:06:12;103231.78;;;-3.46;100.00
46718;BME280;32448;44.960;-0.698;2023-02-11T04:08:39;103200.19;;;-3.69;100.00
46718;BME280;32448;44.960;-0.698;2023-02-11T04:11:07;103233.31;;;-3.55;100.00
46718;BME280;32448;44.960;-0.698;2023-02-11T04:13:34;103234.97;;;-3.55;100.00
46718;BME280;32448;44.960;-0.698;2023-02-11T04:16:01;103231.50;;;-3.56;100.00
46718;BME280;32448;44.960;-0.698;2023-02-11T04:18:30;103240.41;;;-3.52;100.00
46718;BME280;32448;44.960;-0.698;2023-02-11T04:20:57;103243.88;;;-3.52;100.00
46718;BME280;32448;44.960;-0.698;2023-02-11T04:23:25;103244.47;;;-3.54;100.00
46718;BME280;32448;44.960;-0.698;2023-02-11T04:25:52;103239.16;;;-3.56;100.00
46718;BME280;32448;44.960;-0.698;2023-02-11T04:28:19;103238.47;;;-3.62;100.00
46718;BME280;32448;44.960;-0.698;2023-02-11T04:30:48;103239.72;;;-3.58;100.00
46718;BME280;32448;44.960;-0.698;2023-02-11T04:33:16;103238.63;;;-3.60;100.00
46718;BME280;32448;44.960;-0.698;2023-02-11T04:35:44;103245.00;;;-3.57;100.00
46718;BME280;32448;44.960;-0.698;2023-02-11T04:38:11;103231.88;;;-3.60;100.00
46718;BME280;32448;44.960;-0.698;2023-02-11T04:40:39;103233.75;;;-3.66;100.00
46718;BME280;32448;44.960;-0.698;2023-02-11T04:43:06;103235.06;;;-3.70;100.00
46718;BME280;32448;44.960;-0.698;2023-02-11T04:45:33;103231.03;;;-3.68;100.00
46718;BME280;32448;44.960;-0.698;2023-02-11T04:48:02;103220.47;;;-3.71;100.00
46718;BME280;32448;44.960;-0.698;2023-02-11T04:50:30;103229.81;;;-3.78;100.00
46718;BME280;32448;44.960;-0.698;2023-02-11T04:52:57;103223.75;;;-3.72;100.00
46718;BME280;32448;44.960;-0.698;2023-02-11T04:55:24;103223.00;;;-3.71;100.00
46718;BME280;32448;44.960;-0.698;2023-02-11T04:57:51;103218.88;;;-3.77;100.00
46718;BME280;32448;44.960;-0.698;2023-02-11T05:00:19;103204.16;;;-3.87;100.00
46718;BME280;32448;44.960;-0.698;2023-02-11T05:02:46;103218.88;;;-3.84;100.00
46718;BME280;32448;44.960;-0.698;2023-02-11T05:05:13;103197.25;;;-3.95;100.00
46718;BME280;32448;44.960;-0.698;2023-02-11T05:07:40;103224.34;;;-3.81;100.00
46718;BME280;32448;44.960;-0.698;2023-02-11T05:10:08;103238.41;;;-3.78;100.00
46718;BME280;32448;44.960;-0.698;2023-02-11T05:12:35;103224.34;;;-3.81;100.00
46718;BME280;32448;44.960;-0.698;2023-02-11T05:15:03;103224.72;;;-3.85;100.00
46718;BME280;32448;44.960;-0.698;2023-02-11T05:17:30;103222.91;;;-3.86;100.00
46718;BME280;32448;44.960;-0.698;2023-02-11T05:19:58;103227.47;;;-3.84;100.00
46718;BME280;32448;44.960;-0.698;2023-02-11T05:22:25;103227.50;;;-3.91;100.00
46718;BME280;32448;44.960;-0.698;2023-02-11T05:24:52;103227.69;;;-3.89;100.00
46718;BME280;32448;44.960;-0.698;2023-02-11T05:27:19;103227.69;;;-3.89;100.00
46718;BME280;32448;44.960;-0.698;2023-02-11T05:29:47;103231.34;;;-3.87;100.00
46718;BME280;32448;44.960;-0.698;2023-02-11T05:32:14;103228.78;;;-3.87;100.00
46718;BME280;32448;44.960;-0.698;2023-02-11T05:34:41;103229.69;;;-3.87;100.00
46718;BME280;32448;44.960;-0.698;2023-02-11T05:37:08;103199.31;;;-4.07;100.00
46718;BME280;32448;44.960;-0.698;2023-02-11T05:39:36;103231.34;;;-3.94;100.00
46718;BME280;32448;44.960;-0.698;2023-02-11T05:42:03;103225.88;;;-3.97;100.00
46718;BME280;32448;44.960;-0.698;2023-02-11T05:44:31;103224.25;;;-3.97;100.00
46718;BME280;32448;44.960;-0.698;2023-02-11T05:46:58;103221.69;;;-3.97;100.00
46718;BME280;32448;44.960;-0.698;2023-02-11T05:49:25;103224.97;;;-3.91;100.00
46718;BME280;32448;44.960;-0.698;2023-02-11T05:51:53;103221.84;;;-3.88;100.00
46718;BME280;32448;44.960;-0.698;2023-02-11T05:54:20;103194.59;;;-4.11;100.00
46718;BME280;32448;44.960;-0.698;2023-02-11T05:56:47;103229.16;;;-3.91;100.00
46718;BME280;32448;44.960;-0.698;2023-02-11T05:59:14;103203.13;;;-4.03;100.00
46718;BME280;32448;44.960;-0.698;2023-02-11T06:01:42;103216.25;;;-4.00;100.00
46718;BME280;32448;44.960;-0.698;2023-02-11T06:04:09;103213.16;;;-4.05;100.00
46718;BME280;32448;44.960;-0.698;2023-02-11T06:06:36;103219.91;;;-3.98;100.00
46718;BME280;32448;44.960;-0.698;2023-02-11T06:09:03;103185.13;;;-4.12;100.00
46718;BME280;32448;44.960;-0.698;2023-02-11T06:11:31;103228.28;;;-3.99;100.00
46718;BME280;32448;44.960;-0.698;2023-02-11T06:13:58;103216.84;;;-4.10;100.00
46718;BME280;32448;44.960;-0.698;2023-02-11T06:16:25;103225.56;;;-4.08;100.00
46718;BME280;32448;44.960;-0.698;2023-02-11T06:18:53;103225.94;;;-4.05;100.00
46718;BME280;32448;44.960;-0.698;2023-02-11T06:21:20;103217.19;;;-4.07;100.00
46718;BME280;32448;44.960;-0.698;2023-02-11T06:23:50;103222.47;;;-4.05;100.00
46718;BME280;32448;44.960;-0.698;2023-02-11T06:26:20;103218.09;;;-4.06;100.00
46718;BME280;32448;44.960;-0.698;2023-02-11T06:28:48;103202.88;;;-4.20;100.00
46718;BME280;32448;44.960;-0.698;2023-02-11T06:31:15;103229.22;;;-4.06;100.00
46718;BME280;32448;44.960;-0.698;2023-02-11T06:33:43;103227.75;;;-4.04;100.00
46718;BME280;32448;44.960;-0.698;2023-02-11T06:36:17;103230.66;;;-4.00;100.00
46718;BME280;32448;44.960;-0.698;2023-02-11T06:38:46;103223.91;;;-4.00;100.00
46718;BME280;32448;44.960;-0.698;2023-02-11T06:41:17;103222.47;;;-4.05;100.00
46718;BME280;32448;44.960;-0.698;2023-02-11T06:43:52;103210.13;;;-4.16;100.00
46718;BME280;32448;44.960;-0.698;2023-02-11T06:46:19;103211.91;;;-4.08;100.00
46718;BME280;32448;44.960;-0.698;2023-02-11T06:48:47;103218.47;;;-4.03;100.00
46718;BME280;32448;44.960;-0.698;2023-02-11T06:51:16;103215.91;;;-4.03;100.00
46718;BME280;32448;44.960;-0.698;2023-02-11T06:53:45;103224.47;;;-4.03;100.00
46718;BME280;32448;44.960;-0.698;2023-02-11T06:56:15;103226.91;;;-4.11;100.00
46718;BME280;32448;44.960;-0.698;2023-02-11T06:58:43;103193.56;;;-4.27;100.00
46718;BME280;32448;44.960;-0.698;2023-02-11T07:01:13;103238.53;;;-4.06;100.00
46718;BME280;32448;44.960;-0.698;2023-02-11T07:03:43;103235.56;;;-3.95;100.00
46718;BME280;32448;44.960;-0.698;2023-02-11T07:06:13;103225.69;;;-3.92;100.00
46718;BME280;32448;44.960;-0.698;2023-02-11T07:08:41;103233.66;;;-3.82;100.00
46718;BME280;32448;44.960;-0.698;2023-02-11T07:11:17;103233.47;;;-3.83;100.00
46718;BME280;32448;44.960;-0.698;2023-02-11T07:13:46;103232.94;;;-3.81;100.00
46718;BME280;32448;44.960;-0.698;2023-02-11T07:16:15;103197.66;;;-3.99;100.00
46718;BME280;32448;44.960;-0.698;2023-02-11T07:18:43;103228.19;;;-3.85;100.00
46718;BME280;32448;44.960;-0.698;2023-02-11T07:21:15;103204.78;;;-4.04;100.00
46718;BME280;32448;44.960;-0.698;2023-02-11T07:23:43;103237.72;;;-3.91;100.00
46718;BME280;32448;44.960;-0.698;2023-02-11T07:26:12;103223.13;;;-3.92;100.00
46718;BME280;32448;44.960;-0.698;2023-02-11T07:28:42;103227.69;;;-3.89;100.00
46718;BME280;32448;44.960;-0.698;2023-02-11T07:31:19;103225.88;;;-3.90;100.00
46718;BME280;32448;44.960;-0.698;2023-02-11T07:33:47;103233.91;;;-3.87;100.00
46718;BME280;32448;44.960;-0.698;2023-02-11T07:36:15;103234.63;;;-3.88;100.00
46718;BME280;32448;44.960;-0.698;2023-02-11T07:38:43;103247.00;;;-3.84;100.00
46718;BME280;32448;44.960;-0.698;2023-02-11T07:41:15;103228.44;;;-3.90;100.00
46718;BME280;32448;44.960;-0.698;2023-02-11T07:43:55;103211.69;;;-4.03;100.00
46718;BME280;32448;44.960;-0.698;2023-02-11T07:46:24;103247.56;;;-3.87;100.00
46718;BME280;32448;44.960;-0.698;2023-02-11T07:48:53;103249.53;;;-3.84;100.00
46718;BME280;32448;44.960;-0.698;2023-02-11T07:51:28;103254.81;;;-3.76;100.00
46718;BME280;32448;44.960;-0.698;2023-02-11T07:53:58;103237.34;;;-3.87;100.00
46718;BME280;32448;44.960;-0.698;2023-02-11T07:56:27;103258.59;;;-3.72;100.00
46718;BME280;32448;44.960;-0.698;2023-02-11T07:58:58;103236.94;;;-3.83;100.00
46718;BME280;32448;44.960;-0.698;2023-02-11T08:01:26;103260.59;;;-3.70;100.00
46718;BME280;32448;44.960;-0.698;2023-02-11T08:03:55;103260.38;;;-3.64;100.00
46718;BME280;32448;44.960;-0.698;2023-02-11T08:06:25;103258.19;;;-3.61;100.00
46718;BME280;32448;44.960;-0.698;2023-02-11T08:08:53;103250.84;;;-3.58;100.00
46718;BME280;32448;44.960;-0.698;2023-02-11T08:11:23;103222.47;;;-3.68;100.00
46718;BME280;32448;44.960;-0.698;2023-02-11T08:13:53;103254.09;;;-3.52;100.00
46718;BME280;32448;44.960;-0.698;2023-02-11T08:16:29;103263.03;;;-3.48;100.00
46718;BME280;32448;44.960;-0.698;2023-02-11T08:18:59;103261.16;;;-3.42;100.00
46718;BME280;32448;44.960;-0.698;2023-02-11T08:21:27;103253.44;;;-3.12;100.00
46718;BME280;32448;44.960;-0.698;2023-02-11T08:23:55;103268.75;;;-2.67;100.00
46718;BME280;32448;44.960;-0.698;2023-02-11T08:26:29;103263.22;;;-2.63;100.00
46718;BME280;32448;44.960;-0.698;2023-02-11T08:28:58;103280.13;;;-2.72;100.00
46718;BME280;32448;44.960;-0.698;2023-02-11T08:31:27;103266.25;;;-2.74;100.00
46718;BME280;32448;44.960;-0.698;2023-02-11T08:33:55;103271.50;;;-2.65;100.00
46718;BME280;32448;44.960;-0.698;2023-02-11T08:36:26;103265.59;;;-2.64;100.00
46718;BME280;32448;44.960;-0.698;2023-02-11T08:38:57;103250.84;;;-2.67;100.00
46718;BME280;32448;44.960;-0.698;2023-02-11T08:41:47;103271.84;;;-2.46;100.00
46718;BME280;32448;44.960;-0.698;2023-02-11T08:44:18;103266.63;;;-2.39;100.00
46718;BME280;32448;44.960;-0.698;2023-02-11T08:46:46;103248.78;;;-2.31;100.00
46718;BME280;32448;44.960;-0.698;2023-02-11T08:49:14;103259.25;;;-2.21;100.00
46718;BME280;32448;44.960;-0.698;2023-02-11T08:51:41;103263.66;;;-2.20;100.00
46718;BME280;32448;44.960;-0.698;2023-02-11T08:54:08;103267.97;;;-2.11;100.00
46718;BME280;32448;44.960;-0.698;2023-02-11T08:56:37;103243.25;;;-2.27;100.00
46718;BME280;32448;44.960;-0.698;2023-02-11T08:59:04;103255.63;;;-2.07;100.00
46718;BME280;32448;44.960;-0.698;2023-02-11T09:01:32;103265.31;;;-1.89;100.00
46718;BME280;32448;44.960;-0.698;2023-02-11T09:04:00;103265.69;;;-1.77;100.00
46718;BME280;32448;44.960;-0.698;2023-02-11T09:06:28;103263.75;;;-1.71;100.00
46718;BME280;32448;44.960;-0.698;2023-02-11T09:08:56;103256.34;;;-1.52;100.00
46718;BME280;32448;44.960;-0.698;2023-02-11T09:11:30;103262.22;;;-1.53;100.00
46718;BME280;32448;44.960;-0.698;2023-02-11T09:13:58;103255.88;;;-1.57;100.00
46718;BME280;32448;44.960;-0.698;2023-02-11T09:16:35;103250.22;;;-1.45;100.00
46718;BME280;32448;44.960;-0.698;2023-02-11T09:19:03;103249.69;;;-1.34;100.00
46718;BME280;32448;44.960;-0.698;2023-02-11T09:21:31;103255.00;;;-1.24;100.00
46718;BME280;32448;44.960;-0.698;2023-02-11T09:23:58;103233.78;;;-1.15;100.00
46718;BME280;32448;44.960;-0.698;2023-02-11T09:26:28;103242.03;;;-0.84;100.00
46718;BME280;32448;44.960;-0.698;2023-02-11T09:28:56;103247.03;;;-0.77;100.00
46718;BME280;32448;44.960;-0.698;2023-02-11T09:31:26;103244.38;;;-0.70;100.00
46718;BME280;32448;44.960;-0.698;2023-02-11T09:33:58;103226.06;;;-0.73;100.00
46718;BME280;32448;44.960;-0.698;2023-02-11T09:36:29;103237.31;;;-0.55;100.00
46718;BME280;32448;44.960;-0.698;2023-02-11T09:38:58;103241.25;;;-0.33;100.00
46718;BME280;32448;44.960;-0.698;2023-02-11T09:41:34;103245.78;;;-0.22;100.00
46718;BME280;32448;44.960;-0.698;2023-02-11T09:44:07;103248.84;;;-0.17;100.00
46718;BME280;32448;44.960;-0.698;2023-02-11T09:46:39;103241.72;;;0.15;100.00
46718;BME280;32448;44.960;-0.698;2023-02-11T09:49:17;103245.81;;;0.13;100.00
46718;BME280;32448;44.960;-0.698;2023-02-11T09:51:50;103241.56;;;0.13;100.00
46718;BME280;32448;44.960;-0.698;2023-02-11T09:54:25;103251.72;;;0.29;100.00
46718;BME280;32448;44.960;-0.698;2023-02-11T09:56:54;103243.53;;;0.33;100.00
46718;BME280;32448;44.960;-0.698;2023-02-11T09:59:22;103244.09;;;0.48;100.00
46718;BME280;32448;44.960;-0.698;2023-02-11T10:01:53;103247.41;;;0.64;100.00
46718;BME280;32448;44.960;-0.698;2023-02-11T10:07:55;103239.59;;;0.90;100.00
46718;BME280;32448;44.960;-0.698;2023-02-11T10:16:18;103237.63;;;1.51;100.00
46718;BME280;32448;44.960;-0.698;2023-02-11T10:19:29;103232.94;;;1.46;100.00
46718;BME280;32448;44.960;-0.698;2023-02-11T10:22:11;103237.03;;;1.72;100.00
46718;BME280;32448;44.960;-0.698;2023-02-11T10:24:47;103233.47;;;1.80;100.00
46718;BME280;32448;44.960;-0.698;2023-02-11T10:27:20;103237.53;;;1.87;100.00
46718;BME280;32448;44.960;-0.698;2023-02-11T10:29:58;103240.63;;;2.11;100.00
46718;BME280;32448;44.960;-0.698;2023-02-11T10:32:39;103235.63;;;2.13;100.00
46718;BME280;32448;44.960;-0.698;2023-02-11T10:35:18;103236.91;;;2.37;100.00
46718;BME280;32448;44.960;-0.698;2023-02-11T10:37:47;103235.47;;;2.59;100.00
46718;BME280;32448;44.960;-0.698;2023-02-11T10:40:24;103219.63;;;2.65;100.00
46718;BME280;32448;44.960;-0.698;2023-02-11T10:42:54;103228.72;;;2.90;100.00
46718;BME280;32448;44.960;-0.698;2023-02-11T10:45:48;103231.50;;;3.22;100.00
46718;BME280;32448;44.960;-0.698;2023-02-11T10:51:27;103239.66;;;3.16;100.00
46718;BME280;32448;44.960;-0.698;2023-02-11T10:56:49;103240.59;;;3.57;100.00
46718;BME280;32448;44.960;-0.698;2023-02-11T10:59:30;103245.50;;;3.64;100.00
46718;BME280;32448;44.960;-0.698;2023-02-11T11:02:03;103224.69;;;3.83;100.00
46718;BME280;32448;44.960;-0.698;2023-02-11T11:04:39;103241.84;;;4.03;100.00
46718;BME280;32448;44.960;-0.698;2023-02-11T11:07:29;103237.66;;;4.25;100.00
46718;BME280;32448;44.960;-0.698;2023-02-11T11:10:10;103227.97;;;4.13;100.00
46718;BME280;32448;44.960;-0.698;2023-02-11T11:12:51;103218.69;;;4.47;100.00
46718;BME280;32448;44.960;-0.698;2023-02-11T11:15:27;103234.72;;;4.53;100.00
46718;BME280;32448;44.960;-0.698;2023-02-11T11:18:14;103230.88;;;4.69;100.00
46718;BME280;32448;44.960;-0.698;2023-02-11T11:21:01;103228.56;;;4.72;100.00
46718;BME280;32448;44.960;-0.698;2023-02-11T11:23:34;103198.69;;;4.56;100.00
46718;BME280;32448;44.960;-0.698;2023-02-11T11:26:11;103222.66;;;5.07;100.00
46718;BME280;32448;44.960;-0.698;2023-02-11T11:28:42;103211.78;;;5.01;100.00
46718;BME280;32448;44.960;-0.698;2023-02-11T11:33:57;103191.97;;;5.35;100.00
46718;BME280;32448;44.960;-0.698;2023-02-11T11:36:35;103207.00;;;5.39;100.00
46718;BME280;32448;44.960;-0.698;2023-02-11T11:39:23;103202.63;;;5.49;100.00
46718;BME280;32448;44.960;-0.698;2023-02-11T11:41:58;103206.09;;;5.83;100.00
46718;BME280;32448;44.960;-0.698;2023-02-11T11:44:35;103201.97;;;5.64;100.00
46718;BME280;32448;44.960;-0.698;2023-02-11T11:54:55;103164.41;;;5.59;100.00
46718;BME280;32448;44.960;-0.698;2023-02-11T11:57:26;103171.88;;;5.77;100.00
46718;BME280;32448;44.960;-0.698;2023-02-11T11:59:56;103171.66;;;5.86;100.00
46718;BME280;32448;44.960;-0.698;2023-02-11T12:08:28;103167.16;;;6.30;100.00
46718;BME280;32448;44.960;-0.698;2023-02-11T12:17:37;103133.81;;;6.48;100.00
46718;BME280;32448;44.960;-0.698;2023-02-11T12:22:51;103135.97;;;6.78;100.00
46718;BME280;32448;44.960;-0.698;2023-02-11T12:28:25;103132.31;;;7.13;100.00
46718;BME280;32448;44.960;-0.698;2023-02-11T12:31:51;103130.16;;;7.32;100.00
46718;BME280;32448;44.960;-0.698;2023-02-11T12:39:47;103117.00;;;7.55;91.36
46718;BME280;32448;44.960;-0.698;2023-02-11T12:45:20;103106.59;;;7.55;97.60
46718;BME280;32448;44.960;-0.698;2023-02-11T12:48:29;103108.09;;;7.65;99.87
46718;BME280;32448;44.960;-0.698;2023-02-11T13:02:10;103101.19;;;8.31;76.17
46718;BME280;32448;44.960;-0.698;2023-02-11T13:04:45;103094.03;;;8.29;75.05
46718;BME280;32448;44.960;-0.698;2023-02-11T13:07:21;103094.94;;;8.29;79.46
46718;BME280;32448;44.960;-0.698;2023-02-11T13:09:55;103080.63;;;8.36;72.47
46718;BME280;32448;44.960;-0.698;2023-02-11T13:12:26;103072.59;;;8.46;71.23
46718;BME280;32448;44.960;-0.698;2023-02-11T13:15:14;103072.19;;;8.40;78.89
46718;BME280;32448;44.960;-0.698;2023-02-11T13:18:09;103073.56;;;8.61;73.81
46718;BME280;32448;44.960;-0.698;2023-02-11T13:20:50;103076.56;;;8.54;71.77
46718;BME280;32448;44.960;-0.698;2023-02-11T13:23:37;103061.88;;;8.42;76.31
46718;BME280;32448;44.960;-0.698;2023-02-11T13:26:30;103071.16;;;8.51;67.84
46718;BME280;32448;44.960;-0.698;2023-02-11T13:32:14;103057.91;;;8.61;67.69
46718;BME280;32448;44.960;-0.698;2023-02-11T13:37:20;103051.41;;;8.55;65.68
46718;BME280;32448;44.960;-0.698;2023-02-11T13:42:54;103049.66;;;8.68;65.58
46718;BME280;32448;44.960;-0.698;2023-02-11T13:45:33;103049.41;;;8.79;63.15
46718;BME280;32448;44.960;-0.698;2023-02-11T13:48:04;103047.78;;;8.81;64.32
46718;BME280;32448;44.960;-0.698;2023-02-11T13:50:37;103036.66;;;8.83;69.44
46718;BME280;32448;44.960;-0.698;2023-02-11T13:53:06;103031.97;;;9.07;60.39
46718;BME280;32448;44.960;-0.698;2023-02-11T13:55:38;103025.03;;;9.07;61.75
46718;BME280;32448;44.960;-0.698;2023-02-11T14:00:52;103019.81;;;9.07;64.76
46718;BME280;32448;44.960;-0.698;2023-02-11T14:03:37;103021.00;;;8.98;63.62
46718;BME280;32448;44.960;-0.698;2023-02-11T14:06:27;103026.75;;;9.07;64.54
46718;BME280;32448;44.960;-0.698;2023-02-11T14:09:38;103023.97;;;9.04;61.75
46718;BME280;32448;44.960;-0.698;2023-02-11T14:12:30;103017.66;;;9.00;65.79
46718;BME280;32448;44.960;-0.698;2023-02-11T14:17:33;103007.06;;;9.12;67.16
46718;BME280;32448;44.960;-0.698;2023-02-11T14:20:03;103004.88;;;9.20;64.15
46718;BME280;32448;44.960;-0.698;2023-02-11T14:22:51;103004.47;;;9.27;62.85
46718;BME280;32448;44.960;-0.698;2023-02-11T14:25:22;103000.66;;;9.22;64.21
46718;BME280;32448;44.960;-0.698;2023-02-11T14:28:00;103007.88;;;9.26;62.66
46718;BME280;32448;44.960;-0.698;2023-02-11T14:30:33;103022.88;;;9.30;62.57
46718;BME280;32448;44.960;-0.698;2023-02-11T14:41:41;102998.38;;;9.42;63.36
46718;BME280;32448;44.960;-0.698;2023-02-11T14:44:19;102992.78;;;9.51;62.25
46718;BME280;32448;44.960;-0.698;2023-02-11T14:46:50;102982.28;;;9.49;62.17
46718;BME280;32448;44.960;-0.698;2023-02-11T14:49:36;102993.53;;;9.48;58.60
46718;BME280;32448;44.960;-0.698;2023-02-11T14:52:26;102979.91;;;9.54;59.72
46718;BME280;32448;44.960;-0.698;2023-02-11T14:57:35;102973.06;;;9.56;57.79
46718;BME280;32448;44.960;-0.698;2023-02-11T15:00:17;102977.94;;;9.50;59.24
46718;BME280;32448;44.960;-0.698;2023-02-11T15:02:45;102979.19;;;9.57;57.49
46718;BME280;32448;44.960;-0.698;2023-02-11T15:05:24;102979.66;;;9.49;59.51
46718;BME280;32448;44.960;-0.698;2023-02-11T15:08:01;102978.31;;;9.41;61.32